Terminal Aerodrome Forecast
Issued by NWS Wilmington, OH

Current Version | Previous Version | Graphics & Text | Print | Product List | Glossary On
Versions: 1 2 3 4 5 6 7 8 9 10 11 12 13 14 15 16 17 18 19 20 21 22 23 24
885
FTUS41 KILN 300258 AAB
TAFILN
TAF AMD
KILN 300258Z 3003/3024 03010KT P6SM FEW100 OVC130
     FM301200 07009KT P6SM OVC050
     FM301500 10009KT 4SM -SHRA BR OVC025
     FM301800 11012G21KT 2SM -SHRA BR OVC015=

USA.gov is the U.S. government's official web portal to all federal, state and local government web resources and services.